createdAt,value
2018-11-12T00:01:23.350Z,14.97
2018-11-12T00:03:54.368Z,12.60
2018-11-12T00:06:24.562Z,14.30
2018-11-12T00:08:56.697Z,15.57
2018-11-12T00:11:26.786Z,14.57
2018-11-12T00:13:57.060Z,14.30
2018-11-12T00:16:27.110Z,13.60
2018-11-12T00:19:04.661Z,11.70
2018-11-12T00:21:34.685Z,12.33
2018-11-12T00:24:06.345Z,11.73
2018-11-12T00:29:24.716Z,13.10
2018-11-12T00:32:09.136Z,11.70
2018-11-12T00:34:47.793Z,12.17
2018-11-12T00:39:59.942Z,11.67
2018-11-12T00:42:30.581Z,11.20
2018-11-12T00:45:01.419Z,11.13
2018-11-12T00:47:34.047Z,10.80
2018-11-12T00:50:07.615Z,13.60
2018-11-12T00:52:39.792Z,11.47
2018-11-12T00:55:11.731Z,10.53
2018-11-12T00:57:42.162Z,12.40
2018-11-12T01:00:24.593Z,9.87
2018-11-12T01:02:55.190Z,11.33
2018-11-12T01:05:25.672Z,15.10
2018-11-12T01:07:56.357Z,13.73
2018-11-12T01:10:27.854Z,10.30
2018-11-12T01:13:04.370Z,12.00
2018-11-12T01:15:34.236Z,14.70
2018-11-12T01:18:09.628Z,12.77
2018-11-12T01:20:39.378Z,14.10
2018-11-12T01:23:09.050Z,13.03
2018-11-12T01:25:39.724Z,14.37
2018-11-12T01:28:10.179Z,13.00
2018-11-12T01:30:41.355Z,12.03
2018-11-12T01:33:12.222Z,14.23
2018-11-12T01:35:43.413Z,15.73
2018-11-12T01:38:13.857Z,13.73
2018-11-12T01:40:45.216Z,15.00
2018-11-12T01:43:19.428Z,15.10
2018-11-12T01:45:51.335Z,12.23
2018-11-12T01:48:22.063Z,15.40
2018-11-12T01:50:52.764Z,16.60
2018-11-12T01:53:24.035Z,15.47
2018-11-12T01:55:55.355Z,18.50
2018-11-12T01:58:26.047Z,14.40
2018-11-12T02:00:57.152Z,15.17
2018-11-12T02:03:28.445Z,12.67
2018-11-12T02:06:00.105Z,14.60
2018-11-12T02:08:31.131Z,15.87
2018-11-12T02:11:03.844Z,16.83
2018-11-12T02:13:37.206Z,14.40
2018-11-12T02:16:10.131Z,14.37
2018-11-12T02:18:40.011Z,16.23
2018-11-12T02:21:11.527Z,13.03
2018-11-12T02:23:42.394Z,13.33
2018-11-12T02:26:12.685Z,12.73
2018-11-12T02:28:45.287Z,13.03
2018-11-12T02:31:15.030Z,12.37
2018-11-12T02:33:46.192Z,12.67
2018-11-12T02:36:17.082Z,12.50
2018-11-12T02:38:48.585Z,11.87
2018-11-12T02:41:22.081Z,11.37
2018-11-12T02:43:52.548Z,12.73
2018-11-12T02:46:23.863Z,12.40
2018-11-12T02:48:56.642Z,12.37
2018-11-12T02:51:26.451Z,12.10
2018-11-12T02:53:56.867Z,11.80
2018-11-12T02:56:28.954Z,12.10
2018-11-12T02:58:59.187Z,10.90
2018-11-12T03:01:30.620Z,10.73
2018-11-12T03:04:02.456Z,10.80
2018-11-12T03:06:33.652Z,12.53
2018-11-12T03:09:09.813Z,10.90
2018-11-12T03:11:39.642Z,10.77
2018-11-12T03:14:10.319Z,10.57
2018-11-12T03:16:44.900Z,11.53
2018-11-12T03:19:19.052Z,11.87
2018-11-12T03:21:56.626Z,9.77
2018-11-12T03:24:30.827Z,12.40
2018-11-12T03:27:03.274Z,13.87
2018-11-12T03:29:33.101Z,12.20
2018-11-12T03:32:03.144Z,10.43
2018-11-12T03:34:33.930Z,10.60
2018-11-12T03:37:06.581Z,11.80
2018-11-12T03:39:38.973Z,12.93
2018-11-12T03:42:22.249Z,10.90
2018-11-12T03:44:54.283Z,12.50
2018-11-12T03:47:29.486Z,10.57
2018-11-12T03:49:59.166Z,12.60
2018-11-12T03:52:30.705Z,12.43
2018-11-12T03:55:00.576Z,12.13
2018-11-12T03:57:33.312Z,12.10
2018-11-12T04:00:03.793Z,11.47
2018-11-12T04:02:34.124Z,11.43
2018-11-12T04:05:07.133Z,10.70
2018-11-12T04:07:37.221Z,10.57
2018-11-12T04:10:14.777Z,12.20
2018-11-12T04:12:44.524Z,11.37
2018-11-12T04:15:16.101Z,12.07
2018-11-12T04:17:48.335Z,11.37
2018-11-12T04:20:19.302Z,12.27
2018-11-12T04:22:53.980Z,10.37
2018-11-12T04:25:23.475Z,9.47
2018-11-12T04:27:53.073Z,11.17
2018-11-12T04:30:22.511Z,11.13
2018-11-12T04:32:51.950Z,12.43
2018-11-12T04:35:22.105Z,11.40
2018-11-12T04:37:52.104Z,11.07
2018-11-12T04:40:21.633Z,11.53
2018-11-12T04:42:52.670Z,9.80
2018-11-12T04:45:23.508Z,11.60
2018-11-12T04:47:58.440Z,12.27
2018-11-12T04:50:29.913Z,10.50
2018-11-12T04:53:02.005Z,10.83
2018-11-12T04:55:32.570Z,12.97
2018-11-12T04:58:03.872Z,10.50
2018-11-12T05:00:35.784Z,11.33
2018-11-12T05:03:07.233Z,16.03
2018-11-12T05:05:39.076Z,11.80
2018-11-12T05:08:10.524Z,11.00
2018-11-12T05:10:42.393Z,9.60
2018-11-12T05:13:14.073Z,10.40
2018-11-12T05:15:45.553Z,11.07
2018-11-12T05:18:16.753Z,12.23
2018-11-12T05:20:48.226Z,12.27
2018-11-12T05:23:19.292Z,11.47
2018-11-12T05:25:50.307Z,11.10
2018-11-12T05:28:20.764Z,13.27
2018-11-12T05:30:52.852Z,13.30
2018-11-12T05:33:24.846Z,11.27
2018-11-12T05:35:55.510Z,12.53
2018-11-12T05:38:26.494Z,11.83
2018-11-12T05:40:59.114Z,12.83
2018-11-12T05:43:30.577Z,13.40
2018-11-12T05:46:03.018Z,9.73
2018-11-12T05:48:34.772Z,11.43
2018-11-12T05:51:05.605Z,10.43
2018-11-12T05:53:36.952Z,11.83
2018-11-12T05:56:07.534Z,12.13
2018-11-12T05:58:37.441Z,10.90
2018-11-12T06:01:10.260Z,11.20
2018-11-12T06:03:42.648Z,10.27
2018-11-12T06:06:13.515Z,10.87
2018-11-12T06:08:44.712Z,9.70
2018-11-12T06:11:17.876Z,12.80
2018-11-12T06:13:47.407Z,11.70
2018-11-12T06:16:20.484Z,13.03
2018-11-12T06:18:52.022Z,9.70
2018-11-12T06:21:21.814Z,14.77
2018-11-12T06:23:53.953Z,9.37
2018-11-12T06:26:25.172Z,10.17
2018-11-12T06:28:57.584Z,8.00
2018-11-12T06:31:29.035Z,9.73
2018-11-12T06:34:02.386Z,12.83
2018-11-12T06:36:32.136Z,8.97
2018-11-12T06:39:02.755Z,7.13
2018-11-12T06:41:32.467Z,8.33
2018-11-12T06:44:04.174Z,11.13
2018-11-12T06:46:47.796Z,8.47
2018-11-12T06:49:21.798Z,9.37
2018-11-12T06:51:54.250Z,7.80
2018-11-12T06:54:24.753Z,7.80
2018-11-12T06:56:55.955Z,8.87
2018-11-12T06:59:26.347Z,12.17
2018-11-12T07:02:00.477Z,8.47
2018-11-12T07:04:30.403Z,10.57
2018-11-12T07:07:00.953Z,8.50
2018-11-12T07:09:31.474Z,10.50
2018-11-12T07:12:02.506Z,8.57
2018-11-12T07:14:33.141Z,11.03
2018-11-12T07:17:06.577Z,10.13
2018-11-12T07:19:38.759Z,8.37
2018-11-12T07:22:10.194Z,9.37
2018-11-12T07:24:39.858Z,9.00
2018-11-12T07:27:09.743Z,8.63
2018-11-12T07:29:40.976Z,8.27
2018-11-12T07:32:12.917Z,8.60
2018-11-12T07:34:45.655Z,8.73
2018-11-12T07:37:18.204Z,9.63
2018-11-12T07:39:47.893Z,6.97
2018-11-12T07:42:20.531Z,7.80
2018-11-12T07:44:50.960Z,6.17
2018-11-12T07:47:21.340Z,7.27
2018-11-12T07:49:53.989Z,7.70
2018-11-12T07:52:26.536Z,9.47
2018-11-12T07:54:56.342Z,6.83
2018-11-12T07:57:26.711Z,8.27
2018-11-12T07:59:58.151Z,9.63
2018-11-12T08:02:46.982Z,6.57
2018-11-12T08:05:19.889Z,7.50
2018-11-12T08:07:52.626Z,5.77
2018-11-12T08:10:24.565Z,7.33
2018-11-12T08:12:59.233Z,7.73
2018-11-12T08:15:44.050Z,10.37
2018-11-12T08:18:19.050Z,5.47
2018-11-12T08:20:54.573Z,8.13
2018-11-12T08:23:24.559Z,7.20
2018-11-12T08:25:57.525Z,6.63
2018-11-12T08:28:30.678Z,5.40
2018-11-12T08:31:13.976Z,9.03
2018-11-12T08:33:45.115Z,5.53
2018-11-12T08:36:14.849Z,7.33
2018-11-12T08:38:48.169Z,8.67
2018-11-12T08:41:29.522Z,6.57
2018-11-12T08:44:01.251Z,8.20
2018-11-12T08:46:31.049Z,8.43
2018-11-12T08:51:47.508Z,8.47
2018-11-12T08:54:52.277Z,6.20
2018-11-12T08:58:42.181Z,8.57
2018-11-12T09:01:48.747Z,5.23
2018-11-12T09:04:26.249Z,6.50
2018-11-12T09:07:19.224Z,6.70
2018-11-12T09:12:54.505Z,5.33
2018-11-12T09:15:34.952Z,8.17
2018-11-12T09:18:42.476Z,8.70
2018-11-12T09:24:24.023Z,6.50
2018-11-12T09:27:46.889Z,7.77
2018-11-12T09:30:30.496Z,5.53
2018-11-12T09:33:23.074Z,4.03
2018-11-12T09:36:04.768Z,5.93
2018-11-12T09:38:37.292Z,5.27
2018-11-12T09:41:32.251Z,5.70
2018-11-12T09:44:04.239Z,8.50
2018-11-12T09:46:38.767Z,5.83
2018-11-12T09:49:13.114Z,3.60
2018-11-12T09:51:50.540Z,3.90
2018-11-12T09:54:31.603Z,3.93
2018-11-12T09:57:08.209Z,2.77
2018-11-12T09:59:55.939Z,5.60
2018-11-12T10:02:48.334Z,4.33
2018-11-12T10:05:21.910Z,6.10
2018-11-12T10:07:57.324Z,2.90
2018-11-12T10:10:34.372Z,3.67
2018-11-12T10:13:04.866Z,2.90
2018-11-12T10:15:36.861Z,6.40
2018-11-12T10:21:05.244Z,2.87
2018-11-12T10:23:36.019Z,4.50
2018-11-12T10:26:06.062Z,3.87
2018-11-12T10:28:38.200Z,3.30
2018-11-12T10:34:24.019Z,3.37
2018-11-12T10:36:55.520Z,4.47
2018-11-12T10:39:26.251Z,10.80
2018-11-12T10:41:55.704Z,6.23
2018-11-12T10:44:29.828Z,4.77
2018-11-12T10:46:59.871Z,4.87
2018-11-12T10:49:44.242Z,6.07
2018-11-12T10:52:15.232Z,5.33
2018-11-12T10:54:44.955Z,7.97
2018-11-12T10:57:14.849Z,3.27
2018-11-12T10:59:47.636Z,4.80
2018-11-12T11:02:23.027Z,3.10
2018-11-12T11:04:54.927Z,3.87
2018-11-12T11:07:25.513Z,7.97
2018-11-12T11:10:07.709Z,5.20
2018-11-12T11:12:39.892Z,7.03
2018-11-12T11:15:26.144Z,3.20
2018-11-12T11:18:42.815Z,6.77
2018-11-12T11:21:15.618Z,5.47
2018-11-12T11:23:51.959Z,4.67
2018-11-12T11:26:27.679Z,4.77
2018-11-12T11:28:59.322Z,3.47
2018-11-12T11:31:39.196Z,3.20
2018-11-12T11:34:12.951Z,3.10
2018-11-12T11:36:44.440Z,2.20
2018-11-12T11:39:20.320Z,3.17
2018-11-12T11:42:07.680Z,3.93
2018-11-12T11:44:52.831Z,3.70
2018-11-12T11:47:33.538Z,5.80
2018-11-12T11:50:20.561Z,4.60
2018-11-12T11:53:08.993Z,5.60
2018-11-12T11:56:14.038Z,6.03
2018-11-12T11:58:47.004Z,6.37
2018-11-12T12:01:24.783Z,2.83
2018-11-12T12:03:59.993Z,4.00
2018-11-12T12:06:30.436Z,2.57
2018-11-12T12:09:00.815Z,3.43
2018-11-12T12:11:32.835Z,3.50
2018-11-12T12:14:03.404Z,4.17
2018-11-12T12:16:34.240Z,11.00
2018-11-12T12:19:03.974Z,22.27
2018-11-12T12:21:35.970Z,17.33
2018-11-12T12:24:15.435Z,13.17
2018-11-12T12:26:47.651Z,6.70
2018-11-12T12:29:18.226Z,4.10
2018-11-12T12:31:48.199Z,5.07
2018-11-12T12:34:24.413Z,7.97
2018-11-12T12:36:54.592Z,5.80
2018-11-12T12:39:26.186Z,4.47
2018-11-12T12:42:02.282Z,8.30
2018-11-12T12:44:34.508Z,7.13
2018-11-12T12:47:27.662Z,4.23
2018-11-12T12:50:17.958Z,5.07
2018-11-12T12:52:49.475Z,7.37
2018-11-12T12:55:20.482Z,7.83
2018-11-12T12:57:50.419Z,5.07
2018-11-12T13:00:23.949Z,5.60
2018-11-12T13:02:54.208Z,15.73
2018-11-12T13:05:23.864Z,14.13
2018-11-12T13:07:55.184Z,8.83
2018-11-12T13:10:26.627Z,5.70
2018-11-12T13:12:56.851Z,7.27
2018-11-12T13:15:27.918Z,6.40
2018-11-12T13:17:57.973Z,6.77
2018-11-12T13:20:28.680Z,3.20
2018-11-12T13:23:00.485Z,6.17
2018-11-12T13:25:40.049Z,7.63
2018-11-12T13:28:17.600Z,6.70
2018-11-12T13:30:47.232Z,9.97
2018-11-12T13:33:16.859Z,7.50
2018-11-12T13:35:46.324Z,8.90
2018-11-12T13:38:15.977Z,4.57
2018-11-12T13:40:46.295Z,3.67
2018-11-12T13:43:18.109Z,4.07
2018-11-12T13:45:48.573Z,29.80
2018-11-12T13:48:18.194Z,18.60
2018-11-12T13:50:47.753Z,7.13
2018-11-12T13:53:17.680Z,7.90
2018-11-12T13:55:48.651Z,5.43
2018-11-12T13:58:19.298Z,6.00
2018-11-12T14:01:09.019Z,4.00
2018-11-12T14:03:38.892Z,3.67
2018-11-12T14:06:13.344Z,9.70
2018-11-12T14:08:44.111Z,7.00
2018-11-12T14:11:13.875Z,9.20
2018-11-12T14:13:43.865Z,4.13
2018-11-12T14:16:16.482Z,8.30
2018-11-12T14:18:46.606Z,4.27
2018-11-12T14:21:16.550Z,3.17
2018-11-12T14:23:46.042Z,11.43
2018-11-12T14:26:15.848Z,8.87
2018-11-12T14:28:45.530Z,12.07
2018-11-12T14:31:15.818Z,10.97
2018-11-12T14:33:45.990Z,7.70
2018-11-12T14:36:15.850Z,6.63
2018-11-12T14:38:45.374Z,5.53
2018-11-12T14:41:16.530Z,10.23
2018-11-12T14:43:47.179Z,10.73
2018-11-12T14:46:19.561Z,21.07
2018-11-12T14:48:52.782Z,14.63
2018-11-12T14:51:27.036Z,9.40
2018-11-12T14:54:03.099Z,19.37
2018-11-12T14:56:32.885Z,16.60
2018-11-12T14:59:03.277Z,13.43
2018-11-12T15:01:34.164Z,15.90
2018-11-12T15:04:04.221Z,14.63
2018-11-12T15:06:34.464Z,12.33
2018-11-12T15:09:05.655Z,11.03
2018-11-12T15:11:35.027Z,8.40
2018-11-12T15:14:04.603Z,6.43
2018-11-12T15:16:34.212Z,9.80
2018-11-12T15:19:03.955Z,5.37
2018-11-12T15:21:33.424Z,8.33
2018-11-12T15:24:02.959Z,21.07
2018-11-12T15:26:32.425Z,10.43
2018-11-12T15:29:03.889Z,13.53
2018-11-12T15:31:33.185Z,11.40
2018-11-12T15:34:02.859Z,9.00
2018-11-12T15:36:32.292Z,12.53
2018-11-12T15:39:01.914Z,9.10
2018-11-12T15:41:32.042Z,9.90
2018-11-12T15:44:11.753Z,7.63
2018-11-12T15:46:41.423Z,7.70
2018-11-12T15:49:11.069Z,10.73
2018-11-12T15:51:40.504Z,9.43
2018-11-12T15:54:10.073Z,7.67
2018-11-12T15:56:40.035Z,8.83
2018-11-12T15:59:09.526Z,8.17
2018-11-12T16:01:39.035Z,10.37
2018-11-12T16:04:09.076Z,8.10
2018-11-12T16:06:41.871Z,7.60
2018-11-12T16:09:19.193Z,6.70
2018-11-12T16:11:52.965Z,7.37
2018-11-12T16:14:22.502Z,10.20
2018-11-12T16:16:52.006Z,9.00
2018-11-12T16:19:21.705Z,8.27
2018-11-12T16:21:51.326Z,8.27
2018-11-12T16:24:20.969Z,9.10
2018-11-12T16:26:50.518Z,8.60
2018-11-12T16:29:20.189Z,5.87
2018-11-12T16:31:49.556Z,6.90
2018-11-12T16:34:18.925Z,7.03
2018-11-12T16:36:48.958Z,6.57
2018-11-12T16:39:19.503Z,7.47
2018-11-12T16:41:49.468Z,8.17
2018-11-12T16:44:21.226Z,8.13
2018-11-12T16:46:52.857Z,8.70
2018-11-12T16:49:23.876Z,10.23
2018-11-12T16:51:53.878Z,8.33
2018-11-12T16:54:23.593Z,7.00
2018-11-12T16:56:53.913Z,10.70
2018-11-12T16:59:23.551Z,10.40
2018-11-12T17:01:52.987Z,9.50
2018-11-12T17:04:22.525Z,9.20
2018-11-12T17:06:53.439Z,14.37
2018-11-12T17:09:23.215Z,10.47
2018-11-12T17:11:55.855Z,8.33
2018-11-12T17:14:33.651Z,10.73
2018-11-12T17:17:13.649Z,11.03
2018-11-12T17:19:48.629Z,8.90
2018-11-12T17:22:21.173Z,10.67
2018-11-12T17:24:55.341Z,9.37
2018-11-12T17:27:26.866Z,7.57
2018-11-12T17:29:58.494Z,10.63
2018-11-12T17:32:29.223Z,11.00
2018-11-12T17:34:59.282Z,7.93
2018-11-12T17:37:35.424Z,11.97
2018-11-12T17:40:17.240Z,14.67
2018-11-12T17:42:52.353Z,11.13
2018-11-12T17:45:28.946Z,10.60
2018-11-12T17:47:59.717Z,8.83
2018-11-12T17:50:33.487Z,9.87
2018-11-12T17:53:07.791Z,8.70
2018-11-12T17:55:41.819Z,10.83
2018-11-12T17:58:13.549Z,10.77
2018-11-12T18:00:47.264Z,12.03
2018-11-12T18:03:18.987Z,11.37
2018-11-12T18:05:53.327Z,10.50
2018-11-12T18:11:24.800Z,12.63
2018-11-12T18:14:03.884Z,14.47
2018-11-12T18:16:34.716Z,11.73
2018-11-12T18:19:10.609Z,10.73
2018-11-12T18:21:45.233Z,26.90
2018-11-12T18:24:17.056Z,20.20
2018-11-12T18:26:47.409Z,22.87
2018-11-12T18:29:18.380Z,18.83
2018-11-12T18:31:51.410Z,13.97
2018-11-12T18:34:21.424Z,11.87
2018-11-12T18:36:55.151Z,16.57
2018-11-12T18:39:33.220Z,13.30
2018-11-12T18:42:03.635Z,14.87
2018-11-12T18:44:33.361Z,20.20
2018-11-12T18:47:14.238Z,16.47
2018-11-12T18:49:44.317Z,14.83
2018-11-12T18:52:14.675Z,13.43
2018-11-12T18:54:44.458Z,13.33
2018-11-12T18:57:15.469Z,11.30
2018-11-12T18:59:47.561Z,10.67
2018-11-12T19:02:19.754Z,11.33
2018-11-12T19:05:04.791Z,13.37
2018-11-12T19:07:45.553Z,14.90
2018-11-12T19:10:33.808Z,10.83
2018-11-12T19:13:13.283Z,11.93
2018-11-12T19:15:51.762Z,11.93
2018-11-12T19:18:30.730Z,15.23
2018-11-12T19:21:07.090Z,13.37
2018-11-12T19:23:46.436Z,14.63
2018-11-12T19:26:22.885Z,14.77
2018-11-12T19:28:54.183Z,15.50
2018-11-12T19:31:24.308Z,14.63
2018-11-12T19:33:54.311Z,13.37
2018-11-12T19:36:24.303Z,15.37
2018-11-12T19:38:53.891Z,11.90
2018-11-12T19:41:26.381Z,13.47
2018-11-12T19:43:57.663Z,11.13
2018-11-12T19:46:29.241Z,13.13
2018-11-12T19:51:57.957Z,13.27
2018-11-12T19:54:28.544Z,12.83
2018-11-12T19:57:02.651Z,12.33
2018-11-12T20:02:16.217Z,12.73
2018-11-12T20:05:03.597Z,14.83
2018-11-12T20:07:41.420Z,16.53
2018-11-12T20:10:18.297Z,19.43
2018-11-12T20:12:50.857Z,16.33
2018-11-12T20:15:22.568Z,13.40
2018-11-12T20:18:01.879Z,13.70
2018-11-12T20:20:33.881Z,16.73
2018-11-12T20:23:13.044Z,12.50
2018-11-12T20:25:46.906Z,18.67
2018-11-12T20:28:22.050Z,14.53
2018-11-12T20:31:01.613Z,13.03
2018-11-12T20:33:40.996Z,12.30
2018-11-12T20:36:11.189Z,14.00
2018-11-12T20:38:51.181Z,11.73
2018-11-12T20:41:29.146Z,16.23
2018-11-12T20:44:01.416Z,26.20
2018-11-12T20:46:34.342Z,18.97
2018-11-12T20:49:11.545Z,21.17
2018-11-12T20:51:45.911Z,14.63
2018-11-12T20:54:27.495Z,18.30
2018-11-12T20:56:59.637Z,12.93
2018-11-12T20:59:31.722Z,15.60
2018-11-12T21:02:03.547Z,16.17
2018-11-12T21:04:34.716Z,14.30
2018-11-12T21:07:06.827Z,13.40
2018-11-12T21:09:40.632Z,14.27
2018-11-12T21:12:10.436Z,13.50
2018-11-12T21:14:44.618Z,11.33
2018-11-12T21:17:14.247Z,12.83
2018-11-12T21:19:43.940Z,13.53
2018-11-12T21:22:14.824Z,13.63
2018-11-12T21:24:44.871Z,11.77
2018-11-12T21:27:15.725Z,10.43
2018-11-12T21:29:45.596Z,12.80
2018-11-12T21:32:16.063Z,12.17
2018-11-12T21:39:41.339Z,12.37
2018-11-12T21:42:13.190Z,9.90
2018-11-12T21:44:43.326Z,11.23
2018-11-12T21:52:02.221Z,9.20
2018-11-12T21:54:31.970Z,12.77
2018-11-12T21:57:04.716Z,11.73
2018-11-12T21:59:34.548Z,10.63
2018-11-12T22:02:04.890Z,11.27
2018-11-12T22:04:36.876Z,11.93
2018-11-12T22:07:08.713Z,10.03
2018-11-12T22:09:39.162Z,11.47
2018-11-12T22:12:11.434Z,9.60
2018-11-12T22:14:43.138Z,10.53
2018-11-12T22:17:13.944Z,10.37
2018-11-12T22:19:46.209Z,10.07
2018-11-12T22:22:17.534Z,9.70
2018-11-12T22:24:48.413Z,10.60
2018-11-12T22:27:23.165Z,10.07
2018-11-12T22:29:52.947Z,10.90
2018-11-12T22:32:23.695Z,9.60
2018-11-12T22:34:54.674Z,10.77
2018-11-12T22:37:24.678Z,9.97
2018-11-12T22:39:59.104Z,9.80
2018-11-12T22:42:32.398Z,9.40
2018-11-12T22:45:02.988Z,10.27
2018-11-12T22:47:34.093Z,9.53
2018-11-12T22:50:09.551Z,8.50
2018-11-12T22:52:41.913Z,8.77
2018-11-12T22:55:20.885Z,10.07
2018-11-12T22:57:50.713Z,14.60
2018-11-12T23:00:29.077Z,13.30
2018-11-12T23:03:01.726Z,12.80
2018-11-12T23:05:32.106Z,12.33
2018-11-12T23:08:02.524Z,12.27
2018-11-12T23:10:32.120Z,12.47
2018-11-12T23:13:01.981Z,8.80
2018-11-12T23:15:34.299Z,8.67
2018-11-12T23:18:09.591Z,8.60
2018-11-12T23:20:53.472Z,8.83
2018-11-12T23:23:38.263Z,10.10
2018-11-12T23:26:31.161Z,9.63
2018-11-12T23:29:08.688Z,9.60
2018-11-12T23:31:40.441Z,9.23
2018-11-12T23:34:19.543Z,8.67
2018-11-12T23:37:03.818Z,8.63
2018-11-12T23:39:35.621Z,7.47
2018-11-12T23:42:16.815Z,9.83
2018-11-12T23:44:47.696Z,10.27
2018-11-12T23:47:34.154Z,9.40
2018-11-12T23:50:11.550Z,9.87
2018-11-12T23:52:42.422Z,8.57
2018-11-12T23:55:12.293Z,9.10
2018-11-12T23:57:41.779Z,7.80
